Time;durP1;ratioP1;P1;durP2;ratioP2;P2;SDS_P1;SDS_P2;PMS_P1;PMS_P2;Temp;Humidity;BMP_temperature;BMP_pressure;BME280_temperature;BME280_humidity;BME280_pressure;Samples;Min_cycle;Max_cycle;Signal;HPM_P1;HPM_P2
2023/03/18 00:00:39;;;;;;;1.38;1.30;;;;;;;;;;5113842;28;20064;-89
2023/03/18 00:03:06;;;;;;;4.07;3.78;;;;;;;;;;5113694;28;20075;-88
2023/03/18 00:05:33;;;;;;;4.10;3.80;;;;;;;;;;5113310;28;20046;-88
2023/03/18 00:08:00;;;;;;;5.18;4.68;;;;;;;;;;5113297;28;20433;-88
2023/03/18 00:10:26;;;;;;;4.15;3.90;;;;;;;;;;5113493;28;20078;-89
2023/03/18 00:12:53;;;;;;;1.85;1.67;;;;;;;;;;5113181;28;20496;-89
2023/03/18 00:15:21;;;;;;;3.75;3.53;;;;;;;;;;5110737;28;20047;-89
2023/03/18 00:17:48;;;;;;;3.80;3.45;;;;;;;;;;5113202;28;20054;-90
2023/03/18 00:20:17;;;;;;;2.38;2.17;;;;;;;;;;5113050;28;20131;-90
2023/03/18 00:22:44;;;;;;;1.83;1.67;;;;;;;;;;5113743;28;20044;-90
2023/03/18 00:25:12;;;;;;;2.38;1.45;;;;;;;;;;5112882;28;20052;-90
2023/03/18 00:27:38;;;;;;;3.80;3.50;;;;;;;;;;5112973;28;20512;-90
2023/03/18 00:30:06;;;;;;;2.13;1.95;;;;;;;;;;5110762;28;20051;-90
2023/03/18 00:32:34;;;;;;;1.67;1.58;;;;;;;;;;5112235;28;20548;-90
2023/03/18 00:35:01;;;;;;;0.98;0.98;;;;;;;;;;5112822;28;20149;-90
2023/03/18 00:37:30;;;;;;;1.13;1.02;;;;;;;;;;5112954;28;20101;-90
2023/03/18 00:39:57;;;;;;;2.08;1.98;;;;;;;;;;5112961;28;20738;-90
2023/03/18 00:42:24;;;;;;;5.15;2.75;;;;;;;;;;5112929;28;20096;-90
2023/03/18 00:44:51;;;;;;;2.10;2.00;;;;;;;;;;5113472;28;20054;-90
2023/03/18 00:47:17;;;;;;;2.30;1.92;;;;;;;;;;5110940;28;20047;-89
2023/03/18 00:49:46;;;;;;;2.53;2.28;;;;;;;;;;5112792;28;20097;-90
2023/03/18 00:52:12;;;;;;;2.03;1.92;;;;;;;;;;5112952;28;20058;-89
2023/03/18 00:54:39;;;;;;;2.58;2.42;;;;;;;;;;5113175;28;20085;-90
2023/03/18 00:57:05;;;;;;;1.70;1.60;;;;;;;;;;5112712;28;20438;-89
2023/03/18 00:59:32;;;;;;;2.90;2.70;;;;;;;;;;5114339;28;20047;-90
2023/03/18 01:01:58;;;;;;;2.72;2.63;;;;;;;;;;5116592;28;20451;-90
2023/03/18 01:04:26;;;;;;;3.78;3.42;;;;;;;;;;5116329;28;20048;-89
2023/03/18 01:06:54;;;;;;;3.53;3.22;;;;;;;;;;5115590;28;20138;-90
2023/03/18 01:09:22;;;;;;;2.55;2.45;;;;;;;;;;5117111;28;20055;-90
2023/03/18 01:11:48;;;;;;;1.92;1.83;;;;;;;;;;5116723;28;20172;-90
2023/03/18 01:14:15;;;;;;;3.05;2.80;;;;;;;;;;5117159;28;20385;-90
2023/03/18 01:16:42;;;;;;;1.67;1.58;;;;;;;;;;5116934;28;20052;-90
2023/03/18 01:19:08;;;;;;;1.42;1.33;;;;;;;;;;5117197;28;20083;-90
2023/03/18 01:21:35;;;;;;;2.70;2.50;;;;;;;;;;5116074;28;20047;-90
2023/03/18 01:24:03;;;;;;;0.98;0.95;;;;;;;;;;5116410;28;20051;-90
2023/03/18 01:26:29;;;;;;;2.70;2.53;;;;;;;;;;5116941;28;20047;-88
2023/03/18 01:28:56;;;;;;;2.20;2.10;;;;;;;;;;5117710;28;20388;-89
2023/03/18 01:31:23;;;;;;;1.42;1.33;;;;;;;;;;5116872;28;20101;-88
2023/03/18 01:33:49;;;;;;;1.60;1.50;;;;;;;;;;5116699;28;20115;-88
2023/03/18 01:36:16;;;;;;;6.88;1.75;;;;;;;;;;5116549;28;20446;-88
2023/03/18 01:38:43;;;;;;;1.60;1.50;;;;;;;;;;5114429;28;20296;-89
2023/03/18 01:41:11;;;;;;;1.58;1.48;;;;;;;;;;5116468;28;20047;-89
2023/03/18 01:43:39;;;;;;;2.25;2.15;;;;;;;;;;5115840;28;20104;-89
2023/03/18 01:46:20;;;;;;;1.80;1.33;;;;;;;;;;5116182;28;20046;-89
2023/03/18 01:48:48;;;;;;;3.88;3.65;;;;;;;;;;5115711;28;20057;-89
2023/03/18 01:51:15;;;;;;;1.40;1.30;;;;;;;;;;5116222;28;20051;-89
2023/03/18 01:53:43;;;;;;;2.28;2.17;;;;;;;;;;5115542;28;20047;-88
2023/03/18 01:56:11;;;;;;;1.75;1.65;;;;;;;;;;5113175;28;20407;-88
2023/03/18 01:58:39;;;;;;;2.38;1.95;;;;;;;;;;5115668;28;20051;-89
2023/03/18 02:01:08;;;;;;;1.05;0.95;;;;;;;;;;5115616;28;20206;-88
2023/03/18 02:03:35;;;;;;;0.90;0.90;;;;;;;;;;5115418;28;20103;-88
2023/03/18 02:06:02;;;;;;;2.17;2.08;;;;;;;;;;5116167;28;20043;-88
2023/03/18 02:08:28;;;;;;;1.80;1.70;;;;;;;;;;5116090;28;20468;-89
2023/03/18 02:10:55;;;;;;;1.20;1.10;;;;;;;;;;5114438;28;20131;-88
2023/03/18 02:13:25;;;;;;;1.75;1.05;;;;;;;;;;5114085;28;20480;-88
2023/03/18 02:15:53;;;;;;;1.05;1.05;;;;;;;;;;5115519;28;20043;-88
2023/03/18 02:18:22;;;;;;;2.47;2.28;;;;;;;;;;5095159;28;20048;-89
2023/03/18 02:21:08;;;;;;;2.03;1.92;;;;;;;;;;5095009;28;20052;-88
2023/03/18 02:23:38;;;;;;;2.22;2.10;;;;;;;;;;5094761;28;20094;-89
2023/03/18 02:26:10;;;;;;;1.52;1.42;;;;;;;;;;5096095;28;20055;-89
2023/03/18 02:28:39;;;;;;;1.67;1.58;;;;;;;;;;5113746;28;20116;-89
2023/03/18 02:31:08;;;;;;;1.13;1.10;;;;;;;;;;5115686;28;20454;-89
2023/03/18 02:33:37;;;;;;;1.40;1.30;;;;;;;;;;5115711;28;20040;-90
2023/03/18 02:36:05;;;;;;;2.33;1.92;;;;;;;;;;5115857;28;20135;-91
2023/03/18 02:38:32;;;;;;;1.38;1.27;;;;;;;;;;5115969;28;20453;-91
2023/03/18 02:40:58;;;;;;;1.55;1.45;;;;;;;;;;5115333;28;20512;-90
2023/03/18 02:43:27;;;;;;;1.75;1.65;;;;;;;;;;5115580;28;20108;-91
2023/03/18 02:46:12;;;;;;;2.45;2.33;;;;;;;;;;5114241;28;20047;-90
2023/03/18 02:48:41;;;;;;;3.42;3.22;;;;;;;;;;5114933;28;20044;-90
2023/03/18 02:51:08;;;;;;;3.00;2.80;;;;;;;;;;5115237;28;20051;-89
2023/03/18 02:53:35;;;;;;;3.38;3.17;;;;;;;;;;5114788;28;20083;-89
2023/03/18 02:56:02;;;;;;;2.78;2.58;;;;;;;;;;5115262;28;20108;-89
2023/03/18 02:58:29;;;;;;;2.10;2.00;;;;;;;;;;5114837;28;20096;-89
2023/03/18 03:00:56;;;;;;;0.93;0.93;;;;;;;;;;5115512;28;20112;-89
2023/03/18 03:03:24;;;;;;;1.42;1.33;;;;;;;;;;5117733;28;20046;-88
2023/03/18 03:05:51;;;;;;;2.15;2.03;;;;;;;;;;5124040;28;20450;-89
2023/03/18 03:08:18;;;;;;;1.70;1.60;;;;;;;;;;5119327;28;20043;-89
2023/03/18 03:10:45;;;;;;;1.98;1.85;;;;;;;;;;5124082;28;20054;-90
2023/03/18 03:13:11;;;;;;;3.13;2.85;;;;;;;;;;5125082;28;20047;-90
2023/03/18 03:15:38;;;;;;;1.00;0.90;;;;;;;;;;5125211;28;20051;-89
2023/03/18 03:18:04;;;;;;;1.73;1.63;;;;;;;;;;5124033;28;20093;-89
2023/03/18 03:20:34;;;;;;;1.08;1.05;;;;;;;;;;5115042;28;20593;-88
2023/03/18 03:23:01;;;;;;;0.47;0.47;;;;;;;;;;5113025;28;20062;-89
2023/03/18 03:25:27;;;;;;;1.88;1.77;;;;;;;;;;5114275;28;20047;-88
2023/03/18 03:27:54;;;;;;;1.88;1.50;;;;;;;;;;5114858;28;20063;-89
2023/03/18 03:30:21;;;;;;;1.48;1.38;;;;;;;;;;5115397;28;20159;-90
2023/03/18 03:32:48;;;;;;;1.38;1.27;;;;;;;;;;5114941;28;20139;-88
2023/03/18 03:35:15;;;;;;;0.73;0.73;;;;;;;;;;5114885;28;20101;-89
2023/03/18 03:37:43;;;;;;;1.55;1.45;;;;;;;;;;5113869;28;20108;-90
2023/03/18 03:40:11;;;;;;;2.78;2.65;;;;;;;;;;5114635;28;20142;-89
2023/03/18 03:42:37;;;;;;;1.65;1.55;;;;;;;;;;5114852;28;20072;-89
2023/03/18 03:45:06;;;;;;;1.23;1.17;;;;;;;;;;5114056;28;20462;-90
2023/03/18 03:47:32;;;;;;;2.67;2.33;;;;;;;;;;5113858;28;20052;-89
2023/03/18 03:49:59;;;;;;;1.85;1.67;;;;;;;;;;5113149;28;20112;-89
2023/03/18 03:52:25;;;;;;;2.70;2.60;;;;;;;;;;5113826;28;20048;-89
2023/03/18 03:54:54;;;;;;;1.50;1.40;;;;;;;;;;5111584;28;20092;-89
2023/03/18 03:57:22;;;;;;;1.73;1.63;;;;;;;;;;5113488;28;20051;-89
2023/03/18 03:59:49;;;;;;;1.75;1.70;;;;;;;;;;5113843;28;20058;-89
2023/03/18 04:02:15;;;;;;;1.42;1.33;;;;;;;;;;5113883;28;20100;-90
2023/03/18 04:04:42;;;;;;;2.30;2.20;;;;;;;;;;5113756;28;20496;-90
2023/03/18 04:07:09;;;;;;;1.00;1.00;;;;;;;;;;5113680;28;20496;-90
2023/03/18 04:09:35;;;;;;;1.83;1.73;;;;;;;;;;5113405;28;20416;-89
2023/03/18 04:12:04;;;;;;;2.17;1.65;;;;;;;;;;5112684;28;20103;-89
2023/03/18 04:14:31;;;;;;;0.98;0.95;;;;;;;;;;5113294;28;20051;-89
2023/03/18 04:16:59;;;;;;;1.35;1.25;;;;;;;;;;5113371;28;20665;-90
2023/03/18 04:19:26;;;;;;;1.40;1.30;;;;;;;;;;5113664;28;20085;-90
2023/03/18 04:21:52;;;;;;;1.45;1.35;;;;;;;;;;5113536;28;20052;-90
2023/03/18 04:24:19;;;;;;;1.98;1.80;;;;;;;;;;5113128;28;20052;-90
2023/03/18 04:26:46;;;;;;;2.25;2.15;;;;;;;;;;5113204;28;20048;-89
2023/03/18 04:29:14;;;;;;;1.98;1.88;;;;;;;;;;5113555;28;20055;-90
2023/03/18 04:31:41;;;;;;;1.35;1.25;;;;;;;;;;5112094;28;20052;-90
2023/03/18 04:34:08;;;;;;;1.55;1.45;;;;;;;;;;5116874;28;20071;-90
2023/03/18 04:36:35;;;;;;;1.40;1.30;;;;;;;;;;5117898;28;20131;-91
2023/03/18 04:39:01;;;;;;;0.80;0.80;;;;;;;;;;5118027;28;20119;-89
2023/03/18 04:41:28;;;;;;;3.05;2.85;;;;;;;;;;5117079;28;20435;-90
2023/03/18 04:43:54;;;;;;;2.70;2.55;;;;;;;;;;5118607;28;20100;-90
2023/03/18 04:46:22;;;;;;;1.10;1.08;;;;;;;;;;5117702;28;20051;-90
2023/03/18 04:48:49;;;;;;;1.92;1.83;;;;;;;;;;5116158;28;20096;-89
2023/03/18 04:51:15;;;;;;;2.50;1.33;;;;;;;;;;5117212;28;20104;-88
2023/03/18 04:53:42;;;;;;;0.65;0.55;;;;;;;;;;5116999;28;20051;-88
2023/03/18 04:56:09;;;;;;;3.78;2.85;;;;;;;;;;5117155;28;20048;-89
2023/03/18 04:58:35;;;;;;;1.48;1.38;;;;;;;;;;5117406;28;20454;-89
2023/03/18 05:01:03;;;;;;;1.92;1.80;;;;;;;;;;5116961;28;20104;-90
2023/03/18 05:03:31;;;;;;;2.25;2.05;;;;;;;;;;5117913;28;20054;-89
2023/03/18 05:05:57;;;;;;;2.65;2.45;;;;;;;;;;5115731;28;20450;-89
2023/03/18 05:08:24;;;;;;;1.38;1.27;;;;;;;;;;5117051;28;20101;-89
2023/03/18 05:10:50;;;;;;;1.65;1.55;;;;;;;;;;5116625;28;20496;-89
2023/03/18 05:13:17;;;;;;;3.45;3.25;;;;;;;;;;5116698;28;20108;-89
2023/03/18 05:15:43;;;;;;;1.95;1.63;;;;;;;;;;5116402;28;20050;-89
2023/03/18 05:18:10;;;;;;;2.28;2.10;;;;;;;;;;5116599;28;20047;-89
2023/03/18 05:20:38;;;;;;;2.05;1.80;;;;;;;;;;5114305;28;20508;-90
2023/03/18 05:23:05;;;;;;;3.97;2.40;;;;;;;;;;5116629;28;20093;-90
2023/03/18 05:25:32;;;;;;;1.95;1.85;;;;;;;;;;5116901;28;20043;-90
2023/03/18 05:27:58;;;;;;;2.85;2.25;;;;;;;;;;5116721;28;20055;-90
2023/03/18 05:30:25;;;;;;;1.80;1.42;;;;;;;;;;5117516;28;20086;-90
2023/03/18 05:32:51;;;;;;;2.63;2.42;;;;;;;;;;5116255;28;20047;-90
2023/03/18 05:35:18;;;;;;;3.60;3.40;;;;;;;;;;5116945;28;20488;-90
2023/03/18 05:37:46;;;;;;;2.63;2.42;;;;;;;;;;5115115;28;20051;-90
2023/03/18 05:40:13;;;;;;;1.70;1.60;;;;;;;;;;5116799;28;20493;-91
2023/03/18 05:42:40;;;;;;;3.13;2.92;;;;;;;;;;5116447;28;20079;-91
2023/03/18 05:45:07;;;;;;;3.35;3.15;;;;;;;;;;5116758;28;20126;-90
2023/03/18 05:47:34;;;;;;;1.67;1.58;;;;;;;;;;5116547;28;20470;-89
2023/03/18 05:50:01;;;;;;;3.17;1.67;;;;;;;;;;5116905;28;20044;-90
2023/03/18 05:52:28;;;;;;;3.17;2.97;;;;;;;;;;5116826;28;20412;-90
2023/03/18 05:54:56;;;;;;;1.33;1.23;;;;;;;;;;5115950;28;20055;-89
2023/03/18 05:57:22;;;;;;;3.47;1.73;;;;;;;;;;5116057;28;20429;-90
2023/03/18 05:59:49;;;;;;;3.65;3.50;;;;;;;;;;5116034;28;20104;-90
2023/03/18 06:02:16;;;;;;;3.17;3.03;;;;;;;;;;5116159;28;20458;-90
2023/03/18 06:04:42;;;;;;;2.53;2.33;;;;;;;;;;5116598;28;20078;-91
2023/03/18 06:07:10;;;;;;;1.83;1.73;;;;;;;;;;5116635;28;20116;-92
2023/03/18 06:09:37;;;;;;;2.08;1.98;;;;;;;;;;5116767;28;20051;-92
2023/03/18 06:12:06;;;;;;;1.90;1.80;;;;;;;;;;5115114;28;20100;-91
2023/03/18 06:14:32;;;;;;;4.15;1.80;;;;;;;;;;5116682;28;20043;-91
2023/03/18 06:16:59;;;;;;;2.25;2.05;;;;;;;;;;5098172;28;20055;-90
2023/03/18 06:19:27;;;;;;;2.30;2.20;;;;;;;;;;5109536;28;20036;-89
2023/03/18 06:21:53;;;;;;;0.80;0.80;;;;;;;;;;5115618;28;20095;-89
2023/03/18 06:24:20;;;;;;;1.95;1.85;;;;;;;;;;5115600;28;20043;-90
2023/03/18 06:26:47;;;;;;;2.83;2.58;;;;;;;;;;5115466;28;20505;-90
2023/03/18 06:29:15;;;;;;;2.97;2.78;;;;;;;;;;5113334;28;20039;-90
2023/03/18 06:31:41;;;;;;;4.18;3.80;;;;;;;;;;5095391;28;20083;-90
2023/03/18 06:34:08;;;;;;;2.40;2.25;;;;;;;;;;5107746;28;20044;-89
2023/03/18 06:36:34;;;;;;;3.40;3.13;;;;;;;;;;5113233;28;20048;-90
2023/03/18 06:39:01;;;;;;;2.30;2.10;;;;;;;;;;5115284;28;20047;-90
2023/03/18 06:41:28;;;;;;;2.85;2.55;;;;;;;;;;5115111;28;20055;-89
2023/03/18 06:43:54;;;;;;;2.83;2.70;;;;;;;;;;5114847;28;20054;-90
2023/03/18 06:46:22;;;;;;;3.15;2.28;;;;;;;;;;5114206;28;20047;-89
2023/03/18 06:48:49;;;;;;;3.05;2.72;;;;;;;;;;5113076;28;20044;-90
2023/03/18 06:51:15;;;;;;;4.00;3.45;;;;;;;;;;5115350;28;20457;-90
2023/03/18 06:53:42;;;;;;;2.03;1.92;;;;;;;;;;5114775;28;20101;-89
2023/03/18 06:56:08;;;;;;;2.50;2.40;;;;;;;;;;5114009;28;20047;-89
2023/03/18 06:58:35;;;;;;;3.42;3.22;;;;;;;;;;5114206;28;20127;-89
2023/03/18 07:01:02;;;;;;;3.55;3.35;;;;;;;;;;5115189;28;20077;-90
2023/03/18 07:03:29;;;;;;;3.90;3.70;;;;;;;;;;5114370;28;20131;-90
2023/03/18 07:05:56;;;;;;;1.88;1.73;;;;;;;;;;5113147;28;20052;-90
2023/03/18 07:08:22;;;;;;;2.90;2.80;;;;;;;;;;5114504;28;20512;-89
2023/03/18 07:10:51;;;;;;;1.00;1.00;;;;;;;;;;5114870;28;20055;-88
2023/03/18 07:13:18;;;;;;;2.75;2.63;;;;;;;;;;5115045;28;20048;-90
2023/03/18 07:15:45;;;;;;;4.00;3.70;;;;;;;;;;5114203;28;20047;-90
2023/03/18 07:18:12;;;;;;;2.53;2.33;;;;;;;;;;5113987;28;20781;-90
2023/03/18 07:20:40;;;;;;;5.05;3.60;;;;;;;;;;5111404;28;20055;-90
2023/03/18 07:23:07;;;;;;;3.35;3.15;;;;;;;;;;5113491;28;20051;-90
2023/03/18 07:25:33;;;;;;;4.00;3.80;;;;;;;;;;5114931;28;20043;-90
2023/03/18 07:28:00;;;;;;;5.35;5.05;;;;;;;;;;5114755;28;20055;-91
2023/03/18 07:30:27;;;;;;;4.07;3.88;;;;;;;;;;5115176;28;20058;-91
2023/03/18 07:32:54;;;;;;;3.55;3.25;;;;;;;;;;5114978;28;20052;-91
2023/03/18 07:35:20;;;;;;;5.20;3.38;;;;;;;;;;5115461;28;20055;-91
2023/03/18 07:37:48;;;;;;;4.57;4.38;;;;;;;;;;5115373;28;20066;-91
2023/03/18 07:40:15;;;;;;;2.88;2.78;;;;;;;;;;5112817;28;20043;-91
2023/03/18 07:42:42;;;;;;;4.15;3.55;;;;;;;;;;5114297;28;20047;-91
2023/03/18 07:45:10;;;;;;;2.47;2.30;;;;;;;;;;5114268;28;20048;-90
2023/03/18 07:47:36;;;;;;;5.30;4.75;;;;;;;;;;5113773;28;20059;-90
2023/03/18 07:50:03;;;;;;;4.38;4.05;;;;;;;;;;5114129;28;20044;-92
2023/03/18 07:52:30;;;;;;;4.30;4.00;;;;;;;;;;5113999;28;20488;-90
2023/03/18 07:54:58;;;;;;;5.85;5.40;;;;;;;;;;5113113;28;20492;-91
2023/03/18 07:57:24;;;;;;;3.63;3.33;;;;;;;;;;5112288;28;20113;-91
2023/03/18 07:59:51;;;;;;;5.78;5.47;;;;;;;;;;5113966;28;20047;-91
2023/03/18 08:02:19;;;;;;;4.97;4.78;;;;;;;;;;5108717;28;20081;-90
2023/03/18 08:04:45;;;;;;;5.15;4.70;;;;;;;;;;5104913;28;20051;-90
2023/03/18 08:07:12;;;;;;;5.00;4.75;;;;;;;;;;5111629;28;20108;-91
2023/03/18 08:09:38;;;;;;;3.95;3.75;;;;;;;;;;5094934;28;20135;-91
2023/03/18 08:12:07;;;;;;;6.50;5.10;;;;;;;;;;5094064;28;20463;-91
2023/03/18 08:14:33;;;;;;;21.67;4.30;;;;;;;;;;5103076;28;20090;-91
2023/03/18 08:17:00;;;;;;;4.43;4.10;;;;;;;;;;5113241;28;20519;-91
2023/03/18 08:19:27;;;;;;;3.75;3.58;;;;;;;;;;5113538;28;20063;-89
2023/03/18 08:21:54;;;;;;;4.13;3.90;;;;;;;;;;5102067;28;20039;-90
2023/03/18 08:24:21;;;;;;;4.47;4.20;;;;;;;;;;5092184;28;20378;-90
2023/03/18 08:26:47;;;;;;;4.20;3.88;;;;;;;;;;5094306;28;20056;-90
2023/03/18 08:29:16;;;;;;;5.10;4.78;;;;;;;;;;5101600;28;20055;-91
2023/03/18 08:31:43;;;;;;;3.20;3.00;;;;;;;;;;5114074;28;20393;-92
2023/03/18 08:34:09;;;;;;;4.50;3.70;;;;;;;;;;5114909;28;20068;-92
2023/03/18 08:36:36;;;;;;;4.25;4.00;;;;;;;;;;5115345;28;20105;-90
2023/03/18 08:39:04;;;;;;;3.80;3.58;;;;;;;;;;5116193;28;20048;-92
2023/03/18 08:41:31;;;;;;;2.85;2.72;;;;;;;;;;5115139;28;20480;-91
2023/03/18 08:43:57;;;;;;;3.70;3.47;;;;;;;;;;5115612;28;20044;-91
2023/03/18 08:46:25;;;;;;;5.50;5.15;;;;;;;;;;5115258;28;20044;-91
2023/03/18 08:48:53;;;;;;;2.70;2.60;;;;;;;;;;5114522;28;20496;-91
2023/03/18 08:51:21;;;;;;;6.78;6.38;;;;;;;;;;5114413;28;20048;-90
2023/03/18 08:53:47;;;;;;;5.03;4.72;;;;;;;;;;5115269;28;20488;-90
2023/03/18 08:56:14;;;;;;;4.28;3.33;;;;;;;;;;5115377;28;20043;-91
2023/03/18 08:58:42;;;;;;;6.43;5.97;;;;;;;;;;5115085;28;20074;-90
2023/03/18 09:01:09;;;;;;;8.23;7.72;;;;;;;;;;5114221;28;20043;-89
2023/03/18 09:03:37;;;;;;;5.43;5.13;;;;;;;;;;5114484;28;20052;-91
2023/03/18 09:06:04;;;;;;;3.88;3.67;;;;;;;;;;5115409;28;20047;-91
2023/03/18 09:08:31;;;;;;;3.97;3.78;;;;;;;;;;5114782;28;20408;-90
2023/03/18 09:10:58;;;;;;;4.43;3.95;;;;;;;;;;5115244;28;20048;-90
2023/03/18 09:13:25;;;;;;;4.35;4.15;;;;;;;;;;5115664;28;20048;-91
2023/03/18 09:15:52;;;;;;;5.38;5.18;;;;;;;;;;5114564;28;20047;-90
2023/03/18 09:18:19;;;;;;;2.85;2.72;;;;;;;;;;5114323;28;20048;-92
2023/03/18 09:20:47;;;;;;;3.55;3.35;;;;;;;;;;5116330;28;20096;-91
2023/03/18 09:23:14;;;;;;;3.85;3.55;;;;;;;;;;5118361;28;20461;-91
2023/03/18 09:25:41;;;;;;;3.15;2.95;;;;;;;;;;5118557;28;20051;-91
2023/03/18 09:28:08;;;;;;;4.63;4.32;;;;;;;;;;5119080;28;20104;-93
2023/03/18 09:30:34;;;;;;;4.88;4.68;;;;;;;;;;5119717;28;20046;-91
2023/03/18 09:33:01;;;;;;;4.47;4.28;;;;;;;;;;5121790;28;20519;-92
2023/03/18 09:35:28;;;;;;;3.22;2.92;;;;;;;;;;5119849;28;20044;-91
2023/03/18 09:37:56;;;;;;;2.97;2.85;;;;;;;;;;5120062;28;20496;-92
2023/03/18 09:40:26;;;;;;;4.53;4.32;;;;;;;;;;5117294;28;20044;-91
2023/03/18 09:42:58;;;;;;;6.25;5.85;;;;;;;;;;5117983;28;20476;-93
2023/03/18 09:45:28;;;;;;;3.47;3.30;;;;;;;;;;5118124;28;20055;-93
2023/03/18 09:48:08;;;;;;;4.70;4.40;;;;;;;;;;5117908;28;20112;-92
2023/03/18 09:50:41;;;;;;;5.95;5.68;;;;;;;;;;5117431;28;20489;-90
2023/03/18 09:53:16;;;;;;;5.45;5.18;;;;;;;;;;5119792;28;20052;-93
2023/03/18 09:55:46;;;;;;;6.03;5.63;;;;;;;;;;5117930;28;20079;-92
2023/03/18 09:58:24;;;;;;;5.90;5.60;;;;;;;;;;5119617;28;20127;-93
2023/03/18 10:00:53;;;;;;;5.60;5.30;;;;;;;;;;5120155;28;20047;-91
2023/03/18 10:03:26;;;;;;;4.30;3.88;;;;;;;;;;5120238;28;20048;-92
2023/03/18 10:05:55;;;;;;;5.90;4.10;;;;;;;;;;5119555;28;20404;-91
2023/03/18 10:08:25;;;;;;;5.50;5.05;;;;;;;;;;5114899;28;20488;-89
2023/03/18 10:10:52;;;;;;;5.68;5.30;;;;;;;;;;5116922;28;20104;-89
2023/03/18 10:13:21;;;;;;;4.57;4.35;;;;;;;;;;5116707;28;20058;-91
2023/03/18 10:15:49;;;;;;;6.75;6.43;;;;;;;;;;5116634;28;20079;-91
2023/03/18 10:18:21;;;;;;;5.05;4.82;;;;;;;;;;5117003;28;20116;-90
2023/03/18 10:20:52;;;;;;;6.05;5.75;;;;;;;;;;5116721;28;20051;-91
2023/03/18 10:23:23;;;;;;;6.75;6.45;;;;;;;;;;5116699;28;20044;-92
2023/03/18 10:25:52;;;;;;;5.97;5.57;;;;;;;;;;5114563;28;20043;-91
2023/03/18 10:28:31;;;;;;;5.57;5.28;;;;;;;;;;5096440;28;20134;-91
2023/03/18 10:31:01;;;;;;;6.35;6.05;;;;;;;;;;5111323;28;20475;-92
2023/03/18 10:33:33;;;;;;;4.57;4.28;;;;;;;;;;5117371;28;20044;-92
2023/03/18 10:36:04;;;;;;;2.65;2.55;;;;;;;;;;5117605;28;20115;-91
2023/03/18 10:38:35;;;;;;;3.28;2.95;;;;;;;;;;5117311;28;20142;-92
2023/03/18 10:41:01;;;;;;;;;;;;;;;;;;5117114;28;20100;-92
2023/03/18 10:43:30;;;;;;;4.60;4.38;;;;;;;;;;5114766;28;19945;-92
2023/03/18 10:45:59;;;;;;;3.25;3.15;;;;;;;;;;5116384;28;20044;-93
2023/03/18 10:48:28;;;;;;;4.50;4.28;;;;;;;;;;5116222;28;20108;-92
2023/03/18 10:51:00;;;;;;;4.60;4.38;;;;;;;;;;5116283;28;20048;-91
2023/03/18 10:53:28;;;;;;;5.80;5.40;;;;;;;;;;5116171;28;20055;-92
2023/03/18 10:55:58;;;;;;;4.95;4.72;;;;;;;;;;5116140;28;20047;-91
2023/03/18 10:58:25;;;;;;;;;;;;;;;;;;5111693;28;20096;-91
2023/03/18 11:00:54;;;;;;;5.70;5.38;;;;;;;;;;5114764;28;20376;-91
2023/03/18 11:03:22;;;;;;;4.22;4.03;;;;;;;;;;5116322;28;20606;-92
2023/03/18 11:05:50;;;;;;;3.45;3.30;;;;;;;;;;5115821;28;20061;-93
2023/03/18 11:08:33;;;;;;;6.97;6.60;;;;;;;;;;5115789;28;20055;-92
2023/03/18 11:11:02;;;;;;;4.32;4.13;;;;;;;;;;5115461;28;20054;-91
2023/03/18 11:13:29;;;;;;;4.32;4.13;;;;;;;;;;5114751;28;20515;-92
2023/03/18 11:15:57;;;;;;;2.65;2.55;;;;;;;;;;5114927;28;20099;-92
2023/03/18 11:18:25;;;;;;;3.13;3.03;;;;;;;;;;5114962;28;20047;-91
2023/03/18 11:20:54;;;;;;;3.67;3.55;;;;;;;;;;5115447;28;20050;-92
2023/03/18 11:23:44;;;;;;;3.97;3.72;;;;;;;;;;5115083;28;20044;-91
2023/03/18 11:26:17;;;;;;;4.80;4.60;;;;;;;;;;5115737;28;20054;-91
2023/03/18 11:28:46;;;;;;;3.47;3.35;;;;;;;;;;5109687;28;20059;-90
2023/03/18 11:31:29;;;;;;;4.32;4.13;;;;;;;;;;5121195;28;20052;-92
2023/03/18 11:33:57;;;;;;;4.15;3.95;;;;;;;;;;5121593;28;20056;-91
2023/03/18 11:36:26;;;;;;;4.20;4.00;;;;;;;;;;5119452;28;20108;-92
2023/03/18 11:38:56;;;;;;;6.20;5.90;;;;;;;;;;5123798;28;20039;-91
2023/03/18 11:41:23;;;;;;;3.80;3.60;;;;;;;;;;5114950;28;20047;-92
2023/03/18 11:43:58;;;;;;;2.50;2.30;;;;;;;;;;5115724;28;20039;-93
2023/03/18 11:46:26;;;;;;;3.67;3.47;;;;;;;;;;5103219;28;20052;-89
2023/03/18 11:48:53;;;;;;;3.80;3.60;;;;;;;;;;5095712;28;20048;-90
2023/03/18 11:51:37;;;;;;;4.63;4.43;;;;;;;;;;5112260;28;20051;-90
2023/03/18 11:54:14;;;;;;;3.95;3.78;;;;;;;;;;5115575;28;20048;-92
2023/03/18 11:56:43;;;;;;;4.97;4.78;;;;;;;;;;5109306;28;20044;-91
2023/03/18 11:59:39;;;;;;;5.85;5.63;;;;;;;;;;5095886;28;20394;-91
2023/03/18 12:02:22;;;;;;;5.05;4.80;;;;;;;;;;5092459;28;20123;-91
2023/03/18 12:05:01;;;;;;;4.95;4.72;;;;;;;;;;5095663;28;20060;-89
2023/03/18 12:07:49;;;;;;;6.00;5.57;;;;;;;;;;5101531;28;20054;-91
2023/03/18 12:10:19;;;;;;;7.18;6.88;;;;;;;;;;5091629;28;20052;-91
2023/03/18 12:12:54;;;;;;;4.32;4.03;;;;;;;;;;5095300;28;20090;-91
2023/03/18 12:18:05;;;;;;;6.15;5.75;;;;;;;;;;5174088;22;20059;-90
2023/03/18 12:20:41;;;;;;;4.60;4.32;;;;;;;;;;5103431;28;20043;-89
2023/03/18 12:23:13;;;;;;;5.45;5.15;;;;;;;;;;5097739;28;20097;-90
2023/03/18 12:25:45;;;;;;;5.25;5.03;;;;;;;;;;5107152;28;20036;-89
2023/03/18 12:28:18;;;;;;;5.63;5.32;;;;;;;;;;5106410;28;20059;-89
2023/03/18 12:31:03;;;;;;;6.68;6.38;;;;;;;;;;5111992;28;20044;-89
2023/03/18 12:33:39;;;;;;;4.85;4.53;;;;;;;;;;5124857;28;20028;-89
2023/03/18 12:36:13;;;;;;;4.10;3.92;;;;;;;;;;5459321;22;20055;-89
2023/03/18 12:38:48;;;;;;;4.63;4.43;;;;;;;;;;5096517;28;20102;-89
2023/03/18 12:41:17;;;;;;;7.32;7.00;;;;;;;;;;5092702;28;20040;-90
2023/03/18 12:43:50;;;;;;;5.55;5.32;;;;;;;;;;5093302;28;20129;-90
2023/03/18 12:46:22;;;;;;;5.70;5.38;;;;;;;;;;5094190;28;20052;-90
2023/03/18 12:48:52;;;;;;;4.72;4.40;;;;;;;;;;5094429;28;20063;-90
2023/03/18 12:51:22;;;;;;;7.53;7.18;;;;;;;;;;5094089;28;20054;-90
2023/03/18 12:53:51;;;;;;;4.68;4.47;;;;;;;;;;5094854;28;20106;-90
2023/03/18 12:56:20;;;;;;;6.32;6.03;;;;;;;;;;5107229;28;20105;-90
2023/03/18 12:58:49;;;;;;;5.25;4.97;;;;;;;;;;5106487;28;20047;-90
2023/03/18 13:01:18;;;;;;;7.65;7.32;;;;;;;;;;5098793;28;20059;-90
2023/03/18 13:03:48;;;;;;;4.25;4.05;;;;;;;;;;5099664;28;20052;-90
2023/03/18 13:06:17;;;;;;;6.57;6.18;;;;;;;;;;5100463;28;20068;-89
2023/03/18 13:08:59;;;;;;;17.48;15.98;;;;;;;;;;5099792;28;20048;-90
2023/03/18 13:11:30;;;;;;;4.40;4.15;;;;;;;;;;5094530;28;20072;-91
2023/03/18 13:14:00;;;;;;;3.50;3.30;;;;;;;;;;5097782;28;20090;-91
2023/03/18 13:16:27;;;;;;;5.95;5.65;;;;;;;;;;5096558;28;20040;-92
2023/03/18 13:18:56;;;;;;;3.97;3.78;;;;;;;;;;5097368;28;20055;-91
2023/03/18 13:21:26;;;;;;;4.43;4.22;;;;;;;;;;5098021;28;20052;-91
2023/03/18 13:24:05;;;;;;;5.38;5.07;;;;;;;;;;5097394;28;20105;-92
2023/03/18 13:26:39;;;;;;;4.85;4.65;;;;;;;;;;5106467;28;20105;-91
2023/03/18 13:29:15;;;;;;;5.78;5.47;;;;;;;;;;5104225;28;20063;-90
2023/03/18 13:31:48;;;;;;;7.55;7.25;;;;;;;;;;5097035;28;20539;-90
2023/03/18 13:34:39;;;;;;;4.72;4.53;;;;;;;;;;5089605;28;20044;-92
2023/03/18 13:37:12;;;;;;;7.47;7.13;;;;;;;;;;5097941;28;20052;-90
2023/03/18 13:39:47;;;;;;;5.82;5.53;;;;;;;;;;5098129;28;20051;-91
2023/03/18 13:42:25;;;;;;;6.05;5.78;;;;;;;;;;5098725;28;20051;-92
2023/03/18 13:45:01;;;;;;;5.22;4.93;;;;;;;;;;5098545;28;20200;-91
2023/03/18 13:47:30;;;;;;;5.65;5.43;;;;;;;;;;5097010;28;20498;-90
2023/03/18 13:50:01;;;;;;;5.35;5.13;;;;;;;;;;5097315;28;20055;-90
2023/03/18 13:52:27;;;;;;;;;;;;;;;;;;5099144;28;20052;-89
2023/03/18 13:54:58;;;;;;;7.53;6.90;;;;;;;;;;5098128;28;19924;-89
2023/03/18 13:57:36;;;;;;;3.85;3.63;;;;;;;;;;5077571;28;20055;-90
2023/03/18 14:00:26;;;;;;;4.55;4.35;;;;;;;;;;5078962;28;20418;-89
2023/03/18 14:03:14;;;;;;;5.07;4.85;;;;;;;;;;5080532;28;20048;-90
2023/03/18 14:05:41;;;;;;;5.78;5.47;;;;;;;;;;5102169;28;20043;-91
2023/03/18 14:08:27;;;;;;;5.13;4.90;;;;;;;;;;5105236;28;20109;-89
2023/03/18 14:11:08;;;;;;;6.55;6.25;;;;;;;;;;5086749;28;20491;-89
2023/03/18 14:13:36;;;;;;;4.65;4.43;;;;;;;;;;5096528;28;20052;-89
2023/03/18 14:16:09;;;;;;;6.47;6.18;;;;;;;;;;5095565;28;20048;-90
2023/03/18 14:18:36;;;;;;;4.88;4.65;;;;;;;;;;5095713;28;20044;-90
2023/03/18 14:21:06;;;;;;;3.75;3.45;;;;;;;;;;5095530;28;20090;-89
2023/03/18 14:23:35;;;;;;;4.65;4.45;;;;;;;;;;5093642;28;20058;-90
2023/03/18 14:26:03;;;;;;;4.32;4.13;;;;;;;;;;5095516;28;20176;-90
2023/03/18 14:28:41;;;;;;;4.93;4.65;;;;;;;;;;5095289;28;20052;-90
2023/03/18 14:31:29;;;;;;;4.22;4.03;;;;;;;;;;5095253;28;20048;-90
2023/03/18 14:34:23;;;;;;;5.70;5.47;;;;;;;;;;5075263;28;20052;-91
2023/03/18 14:37:04;;;;;;;6.93;6.63;;;;;;;;;;5095169;28;20071;-91
2023/03/18 14:39:32;;;;;;;3.55;3.40;;;;;;;;;;5091171;28;20135;-91
2023/03/18 14:42:00;;;;;;;4.47;4.28;;;;;;;;;;5095300;28;20056;-89
2023/03/18 14:44:32;;;;;;;6.28;5.97;;;;;;;;;;5094928;28;20048;-90
2023/03/18 14:47:03;;;;;;;3.45;3.25;;;;;;;;;;5096111;28;20048;-89
2023/03/18 14:49:30;;;;;;;;;;;;;;;;;;5097829;28;20056;-89
2023/03/18 14:51:58;;;;;;;4.07;3.67;;;;;;;;;;5096599;28;20015;-88
2023/03/18 14:54:27;;;;;;;3.33;3.15;;;;;;;;;;5096848;28;20044;-90
2023/03/18 14:56:54;;;;;;;5.43;5.22;;;;;;;;;;5096911;28;20043;-90